Catalina Spirit — WDJ3865 — position and weather

sailwx.info

Track history (hours):
 
Tides and Currents Weather Stations Pressure Air Temp Water Temp Dewpoint Dewpoint Depression Visibility Wind Speed Wind Dir Waves Ship Positions

Catalina Spirit

Owner: Catalina Classic Cruises, Inc, San Diego, CA. More information available from US FCC via Universal Licensing System and Coast Guard Vessel Documentation Center.

Last reported at 2018-Jun-19 20:22 UTC. Time now 2018-Jun-19 21:28 UTC.
Position N 33°21' W 118°19'.

Length 23 m; draft 2.4 m.

Type: Passenger vessel. MMSI: 366889830.

Date/timePositionNaut miles runAvg speedWind from/ knotsBaromVisibWave heightAir tempDewpointWater temp
2018-Jun-19 20:22N 33°21' W 118°19'0 0.0
2018-Jun-19 18:53N 33°21' W 118°19'0 0.0
2018-Jun-18 22:23N 33°21' W 118°19'0 0.1
2018-Jun-18 21:23N 33°21' W 118°19'0 0.0
2018-Jun-18 18:55N 33°21' W 118°19'9 2.7
2018-Jun-18 15:30N 33°30' W 118°17'612.0
2018-Jun-18 15:00N 33°36' W 118°16'612.5
2018-Jun-18 14:30N 33°42' W 118°15'4 7.5
2018-Jun-18 14:00N 33°46' W 118°15'  
2018-Jun-13 02:06N 33°46' W 118°15'0 0.0
2018-Jun-13 02:00N 33°46' W 118°15'3 5.2
2018-Jun-13 01:30N 33°44' W 118°16'611.1
2018-Jun-13 01:00N 33°38' W 118°16'712.9
2018-Jun-13 00:27N 33°31' W 118°18'613.1
2018-Jun-12 23:59N 33°25' W 118°18'4 7.3
2018-Jun-12 23:27N 33°21' W 118°19'0 0.3
2018-Jun-12 23:00N 33°21' W 118°19'0 0.9
2018-Jun-12 22:30N 33°21' W 118°19'0 0.7
2018-Jun-12 22:00N 33°21' W 118°19'0 0.2
2018-Jun-12 21:30N 33°21' W 118°19'0 0.8
2018-Jun-12 21:00N 33°21' W 118°19'0 0.7
2018-Jun-12 20:22N 33°21' W 118°19'0 1.2
2018-Jun-12 20:00N 33°21' W 118°19'0 0.5
2018-Jun-12 19:18N 33°21' W 118°19'0 0.0
2018-Jun-12 17:12N 33°21' W 118°19'0 0.2
2018-Jun-12 15:28N 33°21' W 118°19'0 0.0
2018-Jun-12 14:51N 33°21' W 118°19'0 0.0
2018-Jun-12 14:30N 33°21' W 118°19'0 0.0
2018-Jun-12 13:59N 33°21' W 118°19'0 0.0
2018-Jun-12 13:28N 33°21' W 118°19'0 0.0
2018-Jun-12 13:00N 33°21' W 118°19'0 0.0
2018-Jun-12 12:30N 33°21' W 118°19'0 0.0
2018-Jun-12 11:56N 33°21' W 118°19'0 0.0
2018-Jun-12 11:30N 33°21' W 118°19'0 0.0
2018-Jun-12 11:00N 33°21' W 118°19'0 0.0
2018-Jun-12 10:29N 33°21' W 118°19'0 0.0
2018-Jun-12 09:58N 33°21' W 118°19'0 0.0
2018-Jun-12 09:30N 33°21' W 118°19'0 0.0
2018-Jun-12 09:00N 33°21' W 118°19'0 0.0
2018-Jun-12 08:30N 33°21' W 118°19'0 0.0
2018-Jun-12 07:59N 33°21' W 118°19'0 0.0
2018-Jun-12 07:12N 33°21' W 118°19'0 0.0
2018-Jun-12 07:00N 33°21' W 118°19'0 0.0
2018-Jun-12 06:30N 33°21' W 118°19'0 0.0
2018-Jun-12 06:00N 33°21' W 118°19'0 0.0
2018-Jun-12 05:30N 33°21' W 118°19'0 0.0
2018-Jun-12 05:00N 33°21' W 118°19'0 0.0
2018-Jun-12 04:30N 33°21' W 118°19'0 0.0
2018-Jun-12 04:00N 33°21' W 118°19'0 0.0
2018-Jun-12 03:30N 33°21' W 118°19'0 0.0
2018-Jun-12 03:00N 33°21' W 118°19'0 0.0
2018-Jun-12 02:30N 33°21' W 118°19'0 0.0
2018-Jun-12 02:01N 33°21' W 118°19'0 0.0
2018-Jun-12 01:30N 33°21' W 118°19'0 0.0
2018-Jun-12 01:00N 33°21' W 118°19'0 0.0
2018-Jun-12 00:30N 33°21' W 118°19'0 0.0
2018-Jun-12 00:00N 33°21' W 118°19'0 0.6
2018-Jun-11 23:30N 33°21' W 118°19'0 0.2
2018-Jun-11 22:58N 33°21' W 118°19'0 0.2
2018-Jun-11 22:30N 33°21' W 118°19'0 0.1
2018-Jun-11 21:43N 33°21' W 118°19'0 1.7
2018-Jun-11 21:30N 33°21' W 118°19'0 0.3
2018-Jun-11 20:12N 33°21' W 118°19'0 0.8
2018-Jun-11 19:47N 33°21' W 118°19'0 0.5
2018-Jun-11 19:30N 33°21' W 118°19'0 0.6
2018-Jun-11 18:47N 33°21' W 118°19'1 0.4
2018-Jun-11 16:12N 33°22' W 118°19'912.6
2018-Jun-11 15:30N 33°31' W 118°17'612.3
2018-Jun-11 15:00N 33°37' W 118°16'611.9
2018-Jun-11 14:31N 33°43' W 118°16'  
Track history (hours):
 
Tides and Currents Weather Stations Pressure Air Temp Water Temp Dewpoint Dewpoint Depression Visibility Wind Speed Wind Dir Waves Ship Positions

Catalina Spirit

Owner: Catalina Classic Cruises, Inc, San Diego, CA. More information available from US FCC via Universal Licensing System and Coast Guard Vessel Documentation Center.

Last reported at 2018-Jun-19 20:22 UTC. Time now 2018-Jun-19 21:28 UTC.
Position N 33°21' W 118°19'.

Length 23 m; draft 2.4 m.

Type: Passenger vessel. MMSI: 366889830.

Date/timePositionNaut miles runAvg speedWind from/ knotsBaromVisibWave heightAir tempDewpointWater temp
2018-Jun-19 20:22N 33°21' W 118°19'0 0.0
2018-Jun-19 18:53N 33°21' W 118°19'0 0.0
2018-Jun-18 22:23N 33°21' W 118°19'0 0.1
2018-Jun-18 21:23N 33°21' W 118°19'0 0.0
2018-Jun-18 18:55N 33°21' W 118°19'9 2.7
2018-Jun-18 15:30N 33°30' W 118°17'612.0
2018-Jun-18 15:00N 33°36' W 118°16'612.5
2018-Jun-18 14:30N 33°42' W 118°15'4 7.5
2018-Jun-18 14:00N 33°46' W 118°15'  
2018-Jun-13 02:06N 33°46' W 118°15'0 0.0
2018-Jun-13 02:00N 33°46' W 118°15'3 5.2
2018-Jun-13 01:30N 33°44' W 118°16'611.1
2018-Jun-13 01:00N 33°38' W 118°16'712.9
2018-Jun-13 00:27N 33°31' W 118°18'613.1
2018-Jun-12 23:59N 33°25' W 118°18'4 7.3
2018-Jun-12 23:27N 33°21' W 118°19'0 0.3
2018-Jun-12 23:00N 33°21' W 118°19'0 0.9
2018-Jun-12 22:30N 33°21' W 118°19'0 0.7
2018-Jun-12 22:00N 33°21' W 118°19'0 0.2
2018-Jun-12 21:30N 33°21' W 118°19'0 0.8
2018-Jun-12 21:00N 33°21' W 118°19'0 0.7
2018-Jun-12 20:22N 33°21' W 118°19'0 1.2
2018-Jun-12 20:00N 33°21' W 118°19'0 0.5
2018-Jun-12 19:18N 33°21' W 118°19'0 0.0
2018-Jun-12 17:12N 33°21' W 118°19'0 0.2
2018-Jun-12 15:28N 33°21' W 118°19'0 0.0
2018-Jun-12 14:51N 33°21' W 118°19'0 0.0
2018-Jun-12 14:30N 33°21' W 118°19'0 0.0
2018-Jun-12 13:59N 33°21' W 118°19'0 0.0
2018-Jun-12 13:28N 33°21' W 118°19'0 0.0
2018-Jun-12 13:00N 33°21' W 118°19'0 0.0
2018-Jun-12 12:30N 33°21' W 118°19'0 0.0
2018-Jun-12 11:56N 33°21' W 118°19'0 0.0
2018-Jun-12 11:30N 33°21' W 118°19'0 0.0
2018-Jun-12 11:00N 33°21' W 118°19'0 0.0
2018-Jun-12 10:29N 33°21' W 118°19'0 0.0
2018-Jun-12 09:58N 33°21' W 118°19'0 0.0
2018-Jun-12 09:30N 33°21' W 118°19'0 0.0
2018-Jun-12 09:00N 33°21' W 118°19'0 0.0
2018-Jun-12 08:30N 33°21' W 118°19'0 0.0
2018-Jun-12 07:59N 33°21' W 118°19'0 0.0
2018-Jun-12 07:12N 33°21' W 118°19'0 0.0
2018-Jun-12 07:00N 33°21' W 118°19'0 0.0
2018-Jun-12 06:30N 33°21' W 118°19'0 0.0
2018-Jun-12 06:00N 33°21' W 118°19'0 0.0
2018-Jun-12 05:30N 33°21' W 118°19'0 0.0
2018-Jun-12 05:00N 33°21' W 118°19'0 0.0
2018-Jun-12 04:30N 33°21' W 118°19'0 0.0
2018-Jun-12 04:00N 33°21' W 118°19'0 0.0
2018-Jun-12 03:30N 33°21' W 118°19'0 0.0
2018-Jun-12 03:00N 33°21' W 118°19'0 0.0
2018-Jun-12 02:30N 33°21' W 118°19'0 0.0
2018-Jun-12 02:01N 33°21' W 118°19'0 0.0
2018-Jun-12 01:30N 33°21' W 118°19'0 0.0
2018-Jun-12 01:00N 33°21' W 118°19'0 0.0
2018-Jun-12 00:30N 33°21' W 118°19'0 0.0
2018-Jun-12 00:00N 33°21' W 118°19'0 0.6
2018-Jun-11 23:30N 33°21' W 118°19'0 0.2
2018-Jun-11 22:58N 33°21' W 118°19'0 0.2
2018-Jun-11 22:30N 33°21' W 118°19'0 0.1
2018-Jun-11 21:43N 33°21' W 118°19'0 1.7
2018-Jun-11 21:30N 33°21' W 118°19'0 0.3
2018-Jun-11 20:12N 33°21' W 118°19'0 0.8
2018-Jun-11 19:47N 33°21' W 118°19'0 0.5
2018-Jun-11 19:30N 33°21' W 118°19'0 0.6
2018-Jun-11 18:47N 33°21' W 118°19'1 0.4
2018-Jun-11 16:12N 33°22' W 118°19'912.6
2018-Jun-11 15:30N 33°31' W 118°17'612.3
2018-Jun-11 15:00N 33°37' W 118°16'611.9
2018-Jun-11 14:31N 33°43' W 118°16'  

Dump ship's entire track history